createdAt,value
2019-05-09T00:00:23.223Z,99493.59
2019-05-09T00:02:29.315Z,99494.35
2019-05-09T00:04:30.679Z,99481.41
2019-05-09T00:06:33.963Z,99491.37
2019-05-09T00:08:35.339Z,99486.02
2019-05-09T00:10:41.658Z,99485.31
2019-05-09T00:12:40.037Z,99488.61
2019-05-09T00:14:43.355Z,99498.34
2019-05-09T00:16:44.664Z,99492.77
2019-05-09T00:18:46.177Z,99479.38
2019-05-09T00:20:55.480Z,99480.99
2019-05-09T00:22:56.848Z,99478.14
2019-05-09T00:24:58.256Z,99477.81
2019-05-09T00:26:59.651Z,99481.53
2019-05-09T00:29:03.810Z,99477.39
2019-05-09T00:31:07.255Z,99473.52
2019-05-09T00:33:08.659Z,99477.34
2019-05-09T00:35:24.461Z,99469.16
2019-05-09T00:37:44.368Z,99476.64
2019-05-09T00:39:45.790Z,99475.28
2019-05-09T00:41:47.157Z,99471.16
2019-05-09T00:43:50.432Z,99474.45
2019-05-09T00:46:04.233Z,99465.93
2019-05-09T00:48:05.891Z,99468.03
2019-05-09T00:50:07.289Z,99469.40
2019-05-09T00:52:08.703Z,99466.34
2019-05-09T00:54:10.327Z,99470.53
2019-05-09T00:56:13.413Z,99470.91
2019-05-09T00:58:15.013Z,99458.67
2019-05-09T01:00:18.983Z,99467.44
2019-05-09T01:02:20.398Z,99459.34
2019-05-09T01:04:23.967Z,99461.43
2019-05-09T01:06:25.057Z,99468.69
2019-05-09T01:08:26.440Z,99463.69
2019-05-09T01:10:27.805Z,99465.98
2019-05-09T01:12:29.207Z,99460.95
2019-05-09T01:14:30.578Z,99466.14
2019-05-09T01:16:33.477Z,99465.34
2019-05-09T01:18:35.162Z,99463.05
2019-05-09T01:20:36.535Z,99469.50
2019-05-09T01:22:37.916Z,99468.23
2019-05-09T01:24:39.331Z,99469.39
2019-05-09T01:26:40.704Z,99470.28
2019-05-09T01:28:44.093Z,99462.77
2019-05-09T01:30:45.387Z,99450.16
2019-05-09T01:32:48.661Z,99457.53
2019-05-09T01:34:50.044Z,99459.34
2019-05-09T01:37:04.738Z,99452.64
2019-05-09T01:39:06.129Z,99452.31
2019-05-09T01:41:07.493Z,99453.13
2019-05-09T01:43:08.903Z,99459.45
2019-05-09T01:45:10.487Z,99466.04
2019-05-09T01:47:13.716Z,99467.25
2019-05-09T01:49:15.197Z,99470.55
2019-05-09T01:51:16.615Z,99479.75
2019-05-09T01:53:19.896Z,99479.55
2019-05-09T01:55:23.573Z,99470.27
2019-05-09T01:57:25.072Z,99474.13
2019-05-09T01:59:26.467Z,99474.07
2019-05-09T02:01:27.865Z,99471.04
2019-05-09T02:03:29.247Z,99472.58
2019-05-09T02:05:30.611Z,99476.25
2019-05-09T02:07:33.221Z,99476.48
2019-05-09T02:09:34.718Z,99476.66
2019-05-09T02:11:42.429Z,99479.89
2019-05-09T02:13:40.008Z,99484.77
2019-05-09T02:15:49.236Z,99485.76
2019-05-09T02:17:58.921Z,99488.83
2019-05-09T02:19:55.850Z,99481.69
2019-05-09T02:21:57.232Z,99480.18
2019-05-09T02:23:58.639Z,99488.28
2019-05-09T02:25:59.999Z,99488.64
2019-05-09T02:28:03.364Z,99493.36
2019-05-09T02:30:06.339Z,99489.36
2019-05-09T02:32:07.780Z,99493.06
2019-05-09T02:34:09.156Z,99490.45
2019-05-09T02:36:10.578Z,99498.92
2019-05-09T02:38:11.959Z,99496.72
2019-05-09T02:40:13.512Z,99489.74
2019-05-09T02:42:14.913Z,99489.05
2019-05-09T02:44:19.324Z,99488.70
2019-05-09T02:46:21.488Z,99491.80
2019-05-09T02:48:22.990Z,99490.17
2019-05-09T02:50:24.434Z,99486.20
2019-05-09T02:52:28.436Z,99493.39
2019-05-09T02:54:29.910Z,99486.62
2019-05-09T02:56:31.629Z,99486.59
2019-05-09T02:58:34.889Z,99485.58
2019-05-09T03:00:39.641Z,99491.59
2019-05-09T03:02:52.150Z,99487.95
2019-05-09T03:04:53.784Z,99494.95
2019-05-09T03:06:55.287Z,99500.84
2019-05-09T03:08:59.369Z,99497.58
2019-05-09T03:11:00.122Z,99510.58
2019-05-09T03:13:01.528Z,99505.90
2019-05-09T03:15:05.198Z,99506.47
2019-05-09T03:17:08.931Z,99508.19
2019-05-09T03:19:09.902Z,99514.09
2019-05-09T03:21:18.915Z,99513.83
2019-05-09T03:23:19.480Z,99511.06
2019-05-09T03:25:21.091Z,99501.77
2019-05-09T03:27:30.049Z,99508.59
2019-05-09T03:29:33.329Z,99517.73
2019-05-09T03:31:39.361Z,99521.70
2019-05-09T03:33:40.871Z,99522.72
2019-05-09T03:35:42.627Z,99521.95
2019-05-09T03:37:48.018Z,99533.95
2019-05-09T03:39:49.303Z,99521.11
2019-05-09T03:41:50.665Z,99516.78
2019-05-09T03:43:52.086Z,99523.73
2019-05-09T03:46:07.884Z,99522.30
2019-05-09T03:48:14.425Z,99507.78
2019-05-09T03:50:17.693Z,99512.89
2019-05-09T03:52:19.326Z,99519.90
2019-05-09T03:54:20.721Z,99525.97
2019-05-09T03:56:29.715Z,99517.75
2019-05-09T03:58:31.108Z,99525.63
2019-05-09T04:00:32.573Z,99522.00
2019-05-09T04:02:33.934Z,99516.80
2019-05-09T04:04:35.363Z,99515.72
2019-05-09T04:06:39.070Z,99517.53
2019-05-09T04:08:40.010Z,99519.97
2019-05-09T04:10:41.420Z,99527.77
2019-05-09T04:12:53.877Z,99530.50
2019-05-09T04:14:48.023Z,99522.09
2019-05-09T04:16:49.411Z,99511.67
2019-05-09T04:18:50.767Z,99510.00
2019-05-09T04:20:52.130Z,99510.48
2019-05-09T04:22:53.600Z,99501.81
2019-05-09T04:24:54.965Z,99510.88
2019-05-09T04:26:58.223Z,99519.63
2019-05-09T04:28:59.636Z,99530.83
2019-05-09T04:31:00.987Z,99532.47
2019-05-09T04:33:02.352Z,99537.84
2019-05-09T04:35:04.300Z,99537.02
2019-05-09T04:37:07.862Z,99536.77
2019-05-09T04:39:12.609Z,99536.84
2019-05-09T04:41:18.387Z,99534.55
2019-05-09T04:43:26.684Z,99542.92
2019-05-09T04:45:23.090Z,99553.09
2019-05-09T04:47:24.530Z,99545.23
2019-05-09T04:49:29.669Z,99539.11
2019-05-09T04:51:29.521Z,99535.95
2019-05-09T04:53:31.836Z,99537.86
2019-05-09T04:55:35.103Z,99541.70
2019-05-09T04:57:38.255Z,99546.34
2019-05-09T04:59:39.830Z,99549.87
2019-05-09T05:01:47.735Z,99553.25
2019-05-09T05:03:50.798Z,99552.99
2019-05-09T05:05:52.160Z,99553.19
2019-05-09T05:07:53.605Z,99550.53
2019-05-09T05:09:55.034Z,99548.73
2019-05-09T05:11:57.917Z,99555.00
2019-05-09T05:13:59.695Z,99549.48
2019-05-09T05:16:01.123Z,99547.88
2019-05-09T05:18:02.497Z,99550.09
2019-05-09T05:20:08.384Z,99552.94
2019-05-09T05:22:21.049Z,99561.98
2019-05-09T05:24:27.833Z,99562.66
2019-05-09T05:26:29.308Z,99563.80
2019-05-09T05:28:30.699Z,99564.77
2019-05-09T05:30:32.105Z,99570.98
2019-05-09T05:32:41.291Z,99570.55
2019-05-09T05:35:01.455Z,99573.03
2019-05-09T05:37:02.822Z,99576.60
2019-05-09T05:39:07.578Z,99572.47
2019-05-09T05:41:08.986Z,99578.84
2019-05-09T05:43:10.352Z,99585.73
2019-05-09T05:45:12.057Z,99583.68
2019-05-09T05:47:26.569Z,99583.63
2019-05-09T05:49:28.061Z,99584.45
2019-05-09T05:51:31.463Z,99579.95
2019-05-09T05:53:33.092Z,99581.42
2019-05-09T05:55:34.486Z,99584.30
2019-05-09T05:57:38.360Z,99580.23
2019-05-09T05:59:41.077Z,99583.16
2019-05-09T06:01:42.762Z,99589.41
2019-05-09T06:03:44.172Z,99592.73
2019-05-09T06:05:49.345Z,99593.14
2019-05-09T06:07:48.891Z,99598.52
2019-05-09T06:09:50.255Z,99602.19
2019-05-09T06:11:51.688Z,99604.50
2019-05-09T06:13:57.543Z,99604.16
2019-05-09T06:15:58.462Z,99605.14
2019-05-09T06:17:59.664Z,99602.42
2019-05-09T06:20:01.132Z,99599.36
2019-05-09T06:22:02.506Z,99602.36
2019-05-09T06:24:03.921Z,99605.55
2019-05-09T06:26:09.369Z,99605.05
2019-05-09T06:28:08.638Z,99606.95
2019-05-09T06:30:14.050Z,99610.31
2019-05-09T06:32:15.580Z,99605.52
2019-05-09T06:34:18.702Z,99601.69
2019-05-09T06:36:20.272Z,99604.25
2019-05-09T06:38:21.704Z,99603.33
2019-05-09T06:40:23.759Z,99603.78
2019-05-09T06:42:25.537Z,99602.50
2019-05-09T06:44:47.899Z,99606.64
2019-05-09T06:46:51.232Z,99605.69
2019-05-09T06:48:53.053Z,99616.67
2019-05-09T06:50:54.474Z,99615.03
2019-05-09T06:52:57.316Z,99612.70
2019-05-09T06:54:58.992Z,99609.73
2019-05-09T06:57:00.408Z,99608.73
2019-05-09T06:59:01.835Z,99605.76
2019-05-09T07:01:20.082Z,99610.58
2019-05-09T07:03:32.219Z,99609.92
2019-05-09T07:05:53.855Z,99613.19
2019-05-09T07:07:57.624Z,99618.47
2019-05-09T07:10:01.059Z,99615.83
2019-05-09T07:12:02.422Z,99612.36
2019-05-09T07:14:03.816Z,99614.28
2019-05-09T07:16:05.201Z,99607.89
2019-05-09T07:18:08.165Z,99615.13
2019-05-09T07:20:09.680Z,99613.71
2019-05-09T07:22:18.194Z,99609.78
2019-05-09T07:24:19.999Z,99609.05
2019-05-09T07:26:29.468Z,99609.72
2019-05-09T07:28:30.877Z,99613.81
2019-05-09T07:30:34.132Z,99610.20
2019-05-09T07:32:43.246Z,99618.70
2019-05-09T07:34:49.455Z,99617.18
2019-05-09T07:36:50.824Z,99617.10
2019-05-09T07:38:52.248Z,99611.45
2019-05-09T07:40:53.883Z,99610.92
2019-05-09T07:42:55.268Z,99620.86
2019-05-09T07:44:59.068Z,99618.17
2019-05-09T07:47:01.458Z,99615.11
2019-05-09T07:49:02.920Z,99615.36
2019-05-09T07:51:04.398Z,99614.43
2019-05-09T07:53:08.583Z,99616.30
2019-05-09T07:55:09.192Z,99618.84
2019-05-09T07:57:10.555Z,99609.42
2019-05-09T07:59:11.972Z,99612.23
2019-05-09T08:01:13.587Z,99613.06
2019-05-09T08:03:14.961Z,99606.45
2019-05-09T08:05:27.983Z,99605.58
2019-05-09T08:07:29.705Z,99606.75
2019-05-09T08:09:31.055Z,99606.65
2019-05-09T08:11:32.446Z,99612.09
2019-05-09T08:13:33.838Z,99613.02
2019-05-09T08:15:35.215Z,99612.72
2019-05-09T08:17:38.181Z,99612.23
2019-05-09T08:19:39.794Z,99606.40
2019-05-09T08:21:41.156Z,99614.08
2019-05-09T08:23:42.619Z,99613.41
2019-05-09T08:25:44.015Z,99620.52
2019-05-09T08:27:45.408Z,99618.50
2019-05-09T08:29:47.842Z,99623.08
2019-05-09T08:31:49.487Z,99626.55
2019-05-09T08:33:50.900Z,99629.81
2019-05-09T08:35:52.876Z,99625.73
2019-05-09T08:37:54.343Z,99626.59
2019-05-09T08:39:57.734Z,99633.67
2019-05-09T08:41:59.468Z,99629.00
2019-05-09T08:44:00.958Z,99631.25
2019-05-09T08:46:02.453Z,99628.26
2019-05-09T08:48:03.882Z,99625.98
2019-05-09T08:50:17.646Z,99627.23
2019-05-09T08:52:20.040Z,99626.70
2019-05-09T08:54:40.428Z,99629.97
2019-05-09T08:56:41.774Z,99628.71
2019-05-09T08:58:43.163Z,99631.30
2019-05-09T09:00:44.573Z,99625.94
2019-05-09T09:02:48.018Z,99621.48
2019-05-09T09:04:49.265Z,99627.33
2019-05-09T09:06:50.628Z,99625.48
2019-05-09T09:08:52.051Z,99630.40
2019-05-09T09:10:53.385Z,99627.17
2019-05-09T09:12:54.785Z,99630.22
2019-05-09T09:14:58.434Z,99632.74
2019-05-09T09:16:59.449Z,99631.94
2019-05-09T09:19:00.878Z,99627.44
2019-05-09T09:21:02.572Z,99627.69
2019-05-09T09:23:03.947Z,99625.55
2019-05-09T09:25:07.480Z,99624.16
2019-05-09T09:27:08.807Z,99626.10
2019-05-09T09:29:10.217Z,99622.80
2019-05-09T09:31:11.585Z,99626.10
2019-05-09T09:33:13.995Z,99629.69
2019-05-09T09:35:15.475Z,99629.83
2019-05-09T09:37:18.561Z,99631.66
2019-05-09T09:39:20.136Z,99631.16
2019-05-09T09:41:21.500Z,99628.27
2019-05-09T09:43:22.855Z,99627.92
2019-05-09T09:45:24.251Z,99627.66
2019-05-09T09:47:25.638Z,99631.05
2019-05-09T09:49:29.335Z,99633.78
2019-05-09T09:51:30.714Z,99635.58
2019-05-09T09:53:32.314Z,99639.73
2019-05-09T09:55:33.684Z,99630.45
2019-05-09T09:57:35.047Z,99634.67
2019-05-09T09:59:53.598Z,99636.02
2019-05-09T10:01:58.399Z,99636.78
2019-05-09T10:04:16.571Z,99638.09
2019-05-09T10:06:11.035Z,99642.31
2019-05-09T10:08:14.135Z,99646.30
2019-05-09T10:10:36.847Z,99644.05
2019-05-09T10:12:44.288Z,99643.54
2019-05-09T10:14:46.144Z,99645.59
2019-05-09T10:16:49.475Z,99649.23
2019-05-09T10:18:52.733Z,99643.34
2019-05-09T10:20:58.738Z,99640.88
2019-05-09T10:23:11.116Z,99637.95
2019-05-09T10:25:03.999Z,99646.31
2019-05-09T10:27:09.906Z,99649.20
2019-05-09T10:29:11.411Z,99643.19
2019-05-09T10:31:12.874Z,99636.72
2019-05-09T10:33:14.340Z,99636.88
2019-05-09T10:35:21.538Z,99638.60
2019-05-09T10:37:22.897Z,99646.25
2019-05-09T10:39:24.464Z,99648.58
2019-05-09T10:41:25.888Z,99648.06
2019-05-09T10:43:44.402Z,99648.49
2019-05-09T10:46:04.252Z,99652.66
2019-05-09T10:48:05.638Z,99642.00
2019-05-09T10:50:08.517Z,99649.55
2019-05-09T10:52:10.146Z,99643.44
2019-05-09T10:54:12.593Z,99640.30
2019-05-09T10:56:13.991Z,99634.92
2019-05-09T10:58:15.372Z,99629.88
2019-05-09T11:00:19.042Z,99626.03
2019-05-09T11:02:20.442Z,99622.63
2019-05-09T11:04:21.822Z,99615.73
2019-05-09T11:06:23.177Z,99613.69
2019-05-09T11:08:24.568Z,99620.45
2019-05-09T11:10:30.114Z,99622.89
2019-05-09T11:12:29.339Z,99619.03
2019-05-09T11:14:36.777Z,99614.94
2019-05-09T11:16:45.528Z,99613.27
2019-05-09T11:18:37.307Z,99612.13
2019-05-09T11:20:38.701Z,99613.52
2019-05-09T11:22:40.161Z,99610.98
2019-05-09T11:24:46.407Z,99608.67
2019-05-09T11:26:47.954Z,99610.23
2019-05-09T11:28:48.701Z,99599.09
2019-05-09T11:30:50.099Z,99601.19
2019-05-09T11:32:51.515Z,99594.98
2019-05-09T11:34:53.094Z,99593.43
2019-05-09T11:36:54.510Z,99587.59
2019-05-09T11:38:59.859Z,99597.02
2019-05-09T11:40:59.151Z,99597.23
2019-05-09T11:43:00.551Z,99592.10
2019-05-09T11:45:03.911Z,99589.02
2019-05-09T11:47:05.327Z,99583.92
2019-05-09T11:49:08.276Z,99587.47
2019-05-09T11:51:10.019Z,99590.30
2019-05-09T11:53:11.433Z,99581.83
2019-05-09T11:55:28.627Z,99578.86
2019-05-09T11:57:18.938Z,99586.45
2019-05-09T11:59:19.789Z,99588.07
2019-05-09T12:01:21.176Z,99589.03
2019-05-09T12:03:22.543Z,99573.97
2019-05-09T12:05:23.965Z,99582.18
2019-05-09T12:07:25.329Z,99582.02
2019-05-09T12:09:28.829Z,99576.58
2019-05-09T12:11:30.039Z,99584.91
2019-05-09T12:13:31.394Z,99583.81
2019-05-09T12:15:32.894Z,99577.09
2019-05-09T12:17:49.772Z,99575.45
2019-05-09T12:19:38.169Z,99579.84
2019-05-09T12:21:47.541Z,99577.98
2019-05-09T12:23:43.035Z,99574.28
2019-05-09T12:25:44.411Z,99580.83
2019-05-09T12:27:48.520Z,99585.70
2019-05-09T12:29:49.095Z,99582.92
2019-05-09T12:31:50.454Z,99581.80
2019-05-09T12:33:51.858Z,99581.80
2019-05-09T12:35:53.270Z,99581.70
2019-05-09T12:37:54.644Z,99592.09
2019-05-09T12:39:58.385Z,99587.26
2019-05-09T12:41:59.328Z,99594.48
2019-05-09T12:44:00.819Z,99592.41
2019-05-09T12:46:02.287Z,99594.78
2019-05-09T12:48:10.225Z,99592.16
2019-05-09T12:50:08.675Z,99592.08
2019-05-09T12:52:10.270Z,99594.98
2019-05-09T12:54:11.649Z,99594.98
2019-05-09T12:56:13.041Z,99597.25
2019-05-09T12:58:27.671Z,99596.17
2019-05-09T13:00:29.546Z,99591.77
2019-05-09T13:02:30.941Z,99587.59
2019-05-09T13:04:32.338Z,99592.62
2019-05-09T13:06:33.761Z,99599.05
2019-05-09T13:08:35.150Z,99591.73
2019-05-09T13:10:37.864Z,99593.22
2019-05-09T13:12:39.451Z,99591.77
2019-05-09T13:14:40.818Z,99594.50
2019-05-09T13:16:49.736Z,99590.82
2019-05-09T13:19:07.463Z,99590.08
2019-05-09T13:21:08.849Z,99598.55
2019-05-09T13:23:10.252Z,99590.19
2019-05-09T13:25:11.636Z,99591.88
2019-05-09T13:27:13.012Z,99597.95
2019-05-09T13:29:14.393Z,99591.48
2019-05-09T13:31:18.178Z,99599.36
2019-05-09T13:33:19.162Z,99595.64
2019-05-09T13:35:20.565Z,99590.18
2019-05-09T13:37:21.975Z,99596.61
2019-05-09T13:39:23.399Z,99594.33
2019-05-09T13:41:24.761Z,99591.48
2019-05-09T13:43:28.082Z,99589.80
2019-05-09T13:45:29.429Z,99592.70
2019-05-09T13:47:30.793Z,99595.61
2019-05-09T13:49:32.167Z,99586.88
2019-05-09T13:51:33.741Z,99586.32
2019-05-09T13:53:35.167Z,99586.31
2019-05-09T13:55:38.062Z,99587.58
2019-05-09T13:57:39.805Z,99586.23
2019-05-09T13:59:41.242Z,99586.76
2019-05-09T14:01:42.612Z,99588.81
2019-05-09T14:03:44.031Z,99588.38
2019-05-09T14:05:47.931Z,99591.36
2019-05-09T14:07:51.218Z,99585.05
2019-05-09T14:09:52.001Z,99586.87
2019-05-09T14:11:53.365Z,99592.91
2019-05-09T14:13:54.789Z,99595.92
2019-05-09T14:15:57.599Z,99592.13
2019-05-09T14:17:59.267Z,99590.46
2019-05-09T14:20:00.697Z,99589.81
2019-05-09T14:22:02.413Z,99586.95
2019-05-09T14:24:14.066Z,99588.29
2019-05-09T14:26:09.371Z,99589.06
2019-05-09T14:28:10.889Z,99587.55
2019-05-09T14:30:12.435Z,99587.17
2019-05-09T14:32:13.839Z,99586.41
2019-05-09T14:34:15.190Z,99583.86
2019-05-09T14:36:16.578Z,99585.80
2019-05-09T14:38:18.542Z,99583.45
2019-05-09T14:40:20.135Z,99585.58
2019-05-09T14:42:21.535Z,99585.50
2019-05-09T14:44:22.921Z,99579.34
2019-05-09T14:46:24.285Z,99586.44
2019-05-09T14:48:25.694Z,99583.64
2019-05-09T14:50:28.519Z,99583.94
2019-05-09T14:52:30.045Z,99579.06
2019-05-09T14:54:31.461Z,99580.19
2019-05-09T14:56:32.835Z,99576.69
2019-05-09T14:58:34.241Z,99574.77
2019-05-09T15:00:38.501Z,99577.94
2019-05-09T15:02:39.139Z,99582.70
2019-05-09T15:04:40.499Z,99581.63
2019-05-09T15:06:41.927Z,99580.22
2019-05-09T15:08:43.288Z,99583.88
2019-05-09T15:10:44.689Z,99578.03
2019-05-09T15:12:48.071Z,99574.71
2019-05-09T15:14:49.355Z,99572.75
2019-05-09T15:16:50.730Z,99574.70
2019-05-09T15:18:52.237Z,99574.38
2019-05-09T15:20:53.713Z,99574.11
2019-05-09T15:22:55.123Z,99569.19
2019-05-09T15:24:58.909Z,99568.52
2019-05-09T15:26:59.804Z,99569.48
2019-05-09T15:29:01.168Z,99568.22
2019-05-09T15:31:02.601Z,99567.94
2019-05-09T15:33:03.962Z,99566.38
2019-05-09T15:35:08.684Z,99568.71
2019-05-09T15:37:09.149Z,99574.84
2019-05-09T15:39:10.513Z,99565.62
2019-05-09T15:41:12.357Z,99567.30
2019-05-09T15:43:13.883Z,99568.69
2019-05-09T15:45:18.258Z,99564.56
2019-05-09T15:47:24.124Z,99571.36
2019-05-09T15:49:28.354Z,99565.00
2019-05-09T15:51:32.029Z,99563.94
2019-05-09T15:53:32.651Z,99565.07
2019-05-09T15:55:34.184Z,99565.35
2019-05-09T15:57:37.682Z,99567.34
2019-05-09T15:59:39.136Z,99568.85
2019-05-09T16:01:40.606Z,99567.00
2019-05-09T16:03:42.139Z,99571.86
2019-05-09T16:05:43.513Z,99572.38
2019-05-09T16:07:44.943Z,99575.80
2019-05-09T16:09:48.323Z,99574.18
2019-05-09T16:11:49.598Z,99575.11
2019-05-09T16:13:50.962Z,99574.23
2019-05-09T16:15:52.346Z,99575.69
2019-05-09T16:17:53.795Z,99574.67
2019-05-09T16:19:57.174Z,99573.14
2019-05-09T16:21:58.421Z,99572.96
2019-05-09T16:23:59.817Z,99572.44
2019-05-09T16:26:01.190Z,99570.60
2019-05-09T16:28:02.938Z,99571.00
2019-05-09T16:30:08.420Z,99566.91
2019-05-09T16:32:10.534Z,99571.45
2019-05-09T16:34:11.919Z,99571.70
2019-05-09T16:36:13.461Z,99570.41
2019-05-09T16:38:14.853Z,99571.36
2019-05-09T16:40:16.242Z,99570.75
2019-05-09T16:42:17.671Z,99571.57
2019-05-09T16:44:19.036Z,99573.66
2019-05-09T16:46:20.412Z,99573.86
2019-05-09T16:48:21.807Z,99571.53
2019-05-09T16:50:23.211Z,99570.42
2019-05-09T16:52:24.638Z,99565.77
2019-05-09T16:54:28.359Z,99564.77
2019-05-09T16:56:29.855Z,99562.21
2019-05-09T16:58:31.262Z,99564.81
2019-05-09T17:00:48.277Z,99565.55
2019-05-09T17:02:49.712Z,99563.73
2019-05-09T17:04:51.123Z,99571.48
2019-05-09T17:06:52.517Z,99565.02
2019-05-09T17:08:53.962Z,99563.69
2019-05-09T17:10:55.363Z,99567.82
2019-05-09T17:12:58.234Z,99567.80
2019-05-09T17:14:59.935Z,99568.45
2019-05-09T17:17:01.314Z,99575.42
2019-05-09T17:19:03.304Z,99573.60
2019-05-09T17:21:24.171Z,99574.65
2019-05-09T17:23:24.214Z,99578.61
2019-05-09T17:25:28.012Z,99576.30
2019-05-09T17:27:28.885Z,99579.66
2019-05-09T17:29:30.285Z,99583.01
2019-05-09T17:31:31.747Z,99584.05
2019-05-09T17:33:33.104Z,99583.06
2019-05-09T17:35:34.596Z,99584.39
2019-05-09T17:37:38.023Z,99592.13
2019-05-09T17:39:39.287Z,99593.66
2019-05-09T17:41:40.708Z,99596.41
2019-05-09T17:43:42.109Z,99592.00
2019-05-09T17:45:43.869Z,99599.23
2019-05-09T17:47:45.244Z,99604.07
2019-05-09T17:49:48.219Z,99604.45
2019-05-09T17:51:49.843Z,99606.20
2019-05-09T17:53:52.172Z,99609.52
2019-05-09T17:55:53.820Z,99609.39
2019-05-09T17:57:55.341Z,99608.16
2019-05-09T17:59:58.353Z,99613.25
2019-05-09T18:01:59.979Z,99613.13
2019-05-09T18:04:01.449Z,99611.91
2019-05-09T18:06:03.815Z,99607.95
2019-05-09T18:08:05.305Z,99614.76
2019-05-09T18:10:07.708Z,99616.44
2019-05-09T18:12:09.346Z,99617.57
2019-05-09T18:14:10.730Z,99621.54
2019-05-09T18:16:12.124Z,99621.20
2019-05-09T18:18:13.502Z,99622.96
2019-05-09T18:20:17.644Z,99624.09
2019-05-09T18:22:19.363Z,99623.95
2019-05-09T18:24:20.852Z,99623.11
2019-05-09T18:26:22.295Z,99626.61
2019-05-09T18:28:23.653Z,99623.59
2019-05-09T18:30:27.362Z,99630.23
2019-05-09T18:32:42.360Z,99630.33
2019-05-09T18:34:43.886Z,99633.67
2019-05-09T18:36:45.353Z,99636.27
2019-05-09T18:38:48.038Z,99639.25
2019-05-09T18:40:49.669Z,99639.81
2019-05-09T18:42:51.154Z,99636.15
2019-05-09T18:44:52.542Z,99640.22
2019-05-09T18:46:54.771Z,99641.50
2019-05-09T18:48:56.201Z,99638.95
2019-05-09T18:50:57.553Z,99640.08
2019-05-09T18:52:58.933Z,99641.41
2019-05-09T18:55:00.357Z,99647.22
2019-05-09T18:57:01.739Z,99644.69
2019-05-09T18:59:03.191Z,99647.33
2019-05-09T19:01:04.649Z,99649.45
2019-05-09T19:03:06.014Z,99649.61
2019-05-09T19:05:07.802Z,99653.87
2019-05-09T19:07:21.845Z,99662.89
2019-05-09T19:09:12.592Z,99663.33
2019-05-09T19:11:14.012Z,99666.40
2019-05-09T19:13:15.379Z,99668.52
2019-05-09T19:15:22.857Z,99674.27
2019-05-09T19:17:42.849Z,99675.74
2019-05-09T19:19:46.122Z,99687.48
2019-05-09T19:21:49.424Z,99684.70
2019-05-09T19:23:50.827Z,99687.59
2019-05-09T19:25:52.197Z,99693.38
2019-05-09T19:27:53.615Z,99700.10
2019-05-09T19:29:55.008Z,99697.68
2019-05-09T19:31:56.367Z,99691.05
2019-05-09T19:33:57.799Z,99690.51
2019-05-09T19:35:59.165Z,99689.25
2019-05-09T19:38:00.731Z,99687.91
2019-05-09T19:40:05.142Z,99696.97
2019-05-09T19:42:06.538Z,99694.09
2019-05-09T19:44:08.029Z,99699.11
2019-05-09T19:46:09.423Z,99697.46
2019-05-09T19:48:10.845Z,99699.41
2019-05-09T19:50:13.922Z,99696.70
2019-05-09T19:52:15.489Z,99699.28
2019-05-09T19:54:16.839Z,99702.52
2019-05-09T19:56:18.287Z,99702.36
2019-05-09T19:58:19.656Z,99703.65
2019-05-09T20:00:21.331Z,99706.49
2019-05-09T20:02:22.722Z,99706.41
2019-05-09T20:04:24.096Z,99707.59
2019-05-09T20:06:25.479Z,99711.36
2019-05-09T20:08:26.880Z,99712.03
2019-05-09T20:10:47.045Z,99715.80
2019-05-09T20:13:02.215Z,99720.02
2019-05-09T20:15:05.418Z,99721.73
2019-05-09T20:17:06.795Z,99723.14
2019-05-09T20:19:08.151Z,99722.48
2019-05-09T20:21:09.594Z,99724.48
2019-05-09T20:23:10.950Z,99727.16
2019-05-09T20:25:13.313Z,99728.84
2019-05-09T20:27:14.699Z,99730.66
2019-05-09T20:29:16.086Z,99733.67
2019-05-09T20:31:17.491Z,99729.95
2019-05-09T20:33:18.857Z,99730.38
2019-05-09T20:35:20.270Z,99731.45
2019-05-09T20:37:21.703Z,99731.81
2019-05-09T20:39:23.249Z,99732.08
2019-05-09T20:41:24.609Z,99732.07
2019-05-09T20:43:26.018Z,99736.44
2019-05-09T20:45:27.471Z,99736.23
2019-05-09T20:47:28.868Z,99738.88
2019-05-09T20:49:30.268Z,99737.14
2019-05-09T20:51:31.672Z,99742.36
2019-05-09T20:53:33.183Z,99745.77
2019-05-09T20:55:34.651Z,99745.17
2019-05-09T20:57:36.020Z,99740.59
2019-05-09T20:59:37.428Z,99741.35
2019-05-09T21:01:38.822Z,99742.85
2019-05-09T21:03:40.194Z,99745.06
2019-05-09T21:05:41.589Z,99745.62
2019-05-09T21:07:42.997Z,99744.16
2019-05-09T21:09:44.378Z,99744.34
2019-05-09T21:11:45.747Z,99747.48
2019-05-09T21:13:48.759Z,99745.42
2019-05-09T21:15:50.423Z,99748.56
2019-05-09T21:17:51.857Z,99754.69
2019-05-09T21:19:53.241Z,99760.20
2019-05-09T21:21:54.793Z,99757.83
2019-05-09T21:23:56.198Z,99756.50
2019-05-09T21:25:57.561Z,99764.27
2019-05-09T21:27:58.987Z,99757.34
2019-05-09T21:30:00.477Z,99762.17
2019-05-09T21:32:01.851Z,99765.16
2019-05-09T21:34:03.247Z,99768.11
2019-05-09T21:36:04.611Z,99765.83
2019-05-09T21:38:06.028Z,99773.06
2019-05-09T21:40:08.390Z,99773.30
2019-05-09T21:42:09.891Z,99778.02
2019-05-09T21:44:11.238Z,99774.97
2019-05-09T21:46:12.602Z,99777.27
2019-05-09T21:48:14.004Z,99778.84
2019-05-09T21:50:15.805Z,99778.36
2019-05-09T21:52:17.215Z,99783.90
2019-05-09T21:54:18.592Z,99783.95
2019-05-09T21:56:20.068Z,99785.28
2019-05-09T21:58:21.473Z,99785.08
2019-05-09T22:00:34.914Z,99785.08
2019-05-09T22:02:36.549Z,99786.08
2019-05-09T22:04:37.956Z,99785.67
2019-05-09T22:06:39.419Z,99788.30
2019-05-09T22:08:40.826Z,99791.22
2019-05-09T22:10:42.199Z,99795.32
2019-05-09T22:12:43.865Z,99793.58
2019-05-09T22:14:45.368Z,99794.14
2019-05-09T22:16:48.369Z,99797.69
2019-05-09T22:18:49.734Z,99793.22
2019-05-09T22:20:51.145Z,99794.63
2019-05-09T22:22:52.531Z,99792.25
2019-05-09T22:24:53.897Z,99796.65
2019-05-09T22:26:55.404Z,99797.59
2019-05-09T22:28:56.824Z,99797.27
2019-05-09T22:30:58.188Z,99801.38
2019-05-09T22:32:59.568Z,99799.91
2019-05-09T22:35:01.692Z,99801.20
2019-05-09T22:37:03.042Z,99804.83
2019-05-09T22:39:06.204Z,99799.77
2019-05-09T22:41:07.612Z,99798.88
2019-05-09T22:43:09.111Z,99804.33
2019-05-09T22:45:11.273Z,99812.11
2019-05-09T22:47:12.698Z,99813.97
2019-05-09T22:49:14.074Z,99812.88
2019-05-09T22:51:15.452Z,99813.95
2019-05-09T22:53:16.856Z,99817.42
2019-05-09T22:55:18.209Z,99823.31
2019-05-09T22:57:19.587Z,99821.52
2019-05-09T22:59:20.983Z,99820.69
2019-05-09T23:01:22.440Z,99822.39
2019-05-09T23:03:23.800Z,99824.40
2019-05-09T23:05:25.488Z,99823.42
2019-05-09T23:07:26.861Z,99823.42
2019-05-09T23:09:28.219Z,99823.45
2019-05-09T23:11:29.619Z,99819.89
2019-05-09T23:13:32.901Z,99821.64
2019-05-09T23:15:34.309Z,99823.30
2019-05-09T23:17:35.898Z,99825.00
2019-05-09T23:19:37.256Z,99828.13
2019-05-09T23:21:38.617Z,99827.08
2019-05-09T23:23:41.227Z,99823.89
2019-05-09T23:25:42.601Z,99821.27
2019-05-09T23:27:43.952Z,99823.48
2019-05-09T23:29:45.365Z,99823.45
2019-05-09T23:32:05.206Z,99819.72
2019-05-09T23:34:06.666Z,99825.00
2019-05-09T23:36:08.066Z,99822.15
2019-05-09T23:38:09.431Z,99825.91
2019-05-09T23:40:11.025Z,99825.63
2019-05-09T23:42:12.530Z,99830.45
2019-05-09T23:44:14.242Z,99826.23
2019-05-09T23:46:15.677Z,99832.20
2019-05-09T23:48:17.054Z,99829.03
2019-05-09T23:50:18.457Z,99833.16
2019-05-09T23:52:19.815Z,99833.56
2019-05-09T23:54:48.211Z,99829.92
2019-05-09T23:57:01.927Z,99835.97
2019-05-09T23:59:21.692Z,99840.77
